sensor_id;sensor_type;location;lat;lon;timestamp;temperature;humidity
14409;DHT22;7289;50.706;4.992;2023-09-19T00:02:21;16.00;99.90
14409;DHT22;7289;50.706;4.992;2023-09-19T00:04:49;16.00;99.90
14409;DHT22;7289;50.706;4.992;2023-09-19T00:07:19;16.00;99.90
14409;DHT22;7289;50.706;4.992;2023-09-19T00:09:48;15.90;99.90
14409;DHT22;7289;50.706;4.992;2023-09-19T00:12:17;15.90;99.90
14409;DHT22;7289;50.706;4.992;2023-09-19T00:14:47;15.90;99.90
14409;DHT22;7289;50.706;4.992;2023-09-19T00:17:15;15.90;99.90
14409;DHT22;7289;50.706;4.992;2023-09-19T00:19:43;15.90;99.90
14409;DHT22;7289;50.706;4.992;2023-09-19T00:22:13;16.00;99.90
14409;DHT22;7289;50.706;4.992;2023-09-19T00:24:43;15.90;99.90
14409;DHT22;7289;50.706;4.992;2023-09-19T00:27:11;16.00;99.90
14409;DHT22;7289;50.706;4.992;2023-09-19T00:29:39;15.90;99.90
14409;DHT22;7289;50.706;4.992;2023-09-19T00:32:09;15.90;99.90
14409;DHT22;7289;50.706;4.992;2023-09-19T00:34:38;16.00;99.90
14409;DHT22;7289;50.706;4.992;2023-09-19T00:37:06;16.00;99.90
14409;DHT22;7289;50.706;4.992;2023-09-19T00:39:35;16.00;99.90
14409;DHT22;7289;50.706;4.992;2023-09-19T00:42:04;16.00;99.90
14409;DHT22;7289;50.706;4.992;2023-09-19T00:44:35;15.90;99.90
14409;DHT22;7289;50.706;4.992;2023-09-19T00:47:03;15.90;99.90
14409;DHT22;7289;50.706;4.992;2023-09-19T00:49:34;15.90;99.90
14409;DHT22;7289;50.706;4.992;2023-09-19T00:52:05;15.90;99.90
14409;DHT22;7289;50.706;4.992;2023-09-19T00:54:35;15.80;99.90
14409;DHT22;7289;50.706;4.992;2023-09-19T00:57:04;15.80;99.90
14409;DHT22;7289;50.706;4.992;2023-09-19T00:59:33;15.90;99.90
14409;DHT22;7289;50.706;4.992;2023-09-19T01:02:02;15.90;99.90
14409;DHT22;7289;50.706;4.992;2023-09-19T01:04:32;15.90;99.90
14409;DHT22;7289;50.706;4.992;2023-09-19T01:07:02;15.90;99.90
14409;DHT22;7289;50.706;4.992;2023-09-19T01:09:31;15.90;99.90
14409;DHT22;7289;50.706;4.992;2023-09-19T01:12:05;15.90;99.90
14409;DHT22;7289;50.706;4.992;2023-09-19T01:14:42;15.80;99.90
14409;DHT22;7289;50.706;4.992;2023-09-19T01:17:20;15.80;99.90
14409;DHT22;7289;50.706;4.992;2023-09-19T01:20:17;15.80;99.90
14409;DHT22;7289;50.706;4.992;2023-09-19T01:22:56;15.80;99.90
14409;DHT22;7289;50.706;4.992;2023-09-19T01:26:01;15.80;99.90
14409;DHT22;7289;50.706;4.992;2023-09-19T01:28:45;15.70;99.90
14409;DHT22;7289;50.706;4.992;2023-09-19T01:31:24;15.70;99.90
14409;DHT22;7289;50.706;4.992;2023-09-19T01:33:58;15.70;99.90
14409;DHT22;7289;50.706;4.992;2023-09-19T01:36:29;15.70;99.90
14409;DHT22;7289;50.706;4.992;2023-09-19T01:38:59;15.70;99.90
14409;DHT22;7289;50.706;4.992;2023-09-19T01:41:56;15.70;99.90
14409;DHT22;7289;50.706;4.992;2023-09-19T01:44:34;15.60;99.90
14409;DHT22;7289;50.706;4.992;2023-09-19T01:47:13;15.60;99.90
14409;DHT22;7289;50.706;4.992;2023-09-19T01:49:54;15.60;99.90
14409;DHT22;7289;50.706;4.992;2023-09-19T01:52:29;15.60;99.90
14409;DHT22;7289;50.706;4.992;2023-09-19T01:55:06;15.50;99.90
14409;DHT22;7289;50.706;4.992;2023-09-19T01:57:42;15.40;99.90
14409;DHT22;7289;50.706;4.992;2023-09-19T02:00:15;15.40;99.90
14409;DHT22;7289;50.706;4.992;2023-09-19T02:02:47;15.40;99.90
14409;DHT22;7289;50.706;4.992;2023-09-19T02:05:22;15.40;99.90
14409;DHT22;7289;50.706;4.992;2023-09-19T02:07:52;15.50;99.90
14409;DHT22;7289;50.706;4.992;2023-09-19T02:10:21;15.50;99.90
14409;DHT22;7289;50.706;4.992;2023-09-19T02:12:50;15.40;99.90
14409;DHT22;7289;50.706;4.992;2023-09-19T02:15:18;15.40;99.90
14409;DHT22;7289;50.706;4.992;2023-09-19T02:17:48;15.30;99.90
14409;DHT22;7289;50.706;4.992;2023-09-19T02:20:17;15.30;99.90
14409;DHT22;7289;50.706;4.992;2023-09-19T02:22:47;15.40;99.90
14409;DHT22;7289;50.706;4.992;2023-09-19T02:25:17;15.30;99.90
14409;DHT22;7289;50.706;4.992;2023-09-19T02:27:46;15.30;99.90
14409;DHT22;7289;50.706;4.992;2023-09-19T02:30:15;15.30;99.90
14409;DHT22;7289;50.706;4.992;2023-09-19T02:32:50;15.30;99.90
14409;DHT22;7289;50.706;4.992;2023-09-19T02:35:18;15.30;99.90
14409;DHT22;7289;50.706;4.992;2023-09-19T02:37:47;15.20;99.90
14409;DHT22;7289;50.706;4.992;2023-09-19T02:40:16;15.20;99.90
14409;DHT22;7289;50.706;4.992;2023-09-19T02:42:52;15.10;99.90
14409;DHT22;7289;50.706;4.992;2023-09-19T02:45:23;15.20;99.90
14409;DHT22;7289;50.706;4.992;2023-09-19T02:47:53;15.10;99.90
14409;DHT22;7289;50.706;4.992;2023-09-19T02:50:22;15.20;99.90
14409;DHT22;7289;50.706;4.992;2023-09-19T02:52:50;15.10;99.90
14409;DHT22;7289;50.706;4.992;2023-09-19T02:55:19;15.10;99.90
14409;DHT22;7289;50.706;4.992;2023-09-19T02:57:50;15.10;99.90
14409;DHT22;7289;50.706;4.992;2023-09-19T03:00:20;15.00;99.90
14409;DHT22;7289;50.706;4.992;2023-09-19T03:02:49;15.00;99.90
14409;DHT22;7289;50.706;4.992;2023-09-19T03:05:21;15.00;99.90
14409;DHT22;7289;50.706;4.992;2023-09-19T03:07:51;15.00;99.90
14409;DHT22;7289;50.706;4.992;2023-09-19T03:10:21;15.10;99.90
14409;DHT22;7289;50.706;4.992;2023-09-19T03:12:50;15.10;99.90
14409;DHT22;7289;50.706;4.992;2023-09-19T03:15:19;15.10;99.90
14409;DHT22;7289;50.706;4.992;2023-09-19T03:17:50;15.10;99.90
14409;DHT22;7289;50.706;4.992;2023-09-19T03:20:22;15.20;99.90
14409;DHT22;7289;50.706;4.992;2023-09-19T03:22:51;15.20;99.90
14409;DHT22;7289;50.706;4.992;2023-09-19T03:25:21;15.30;99.90
14409;DHT22;7289;50.706;4.992;2023-09-19T03:27:52;15.30;99.90
14409;DHT22;7289;50.706;4.992;2023-09-19T03:30:22;15.40;99.90
14409;DHT22;7289;50.706;4.992;2023-09-19T03:32:51;15.40;99.90
14409;DHT22;7289;50.706;4.992;2023-09-19T03:35:19;15.40;99.90
14409;DHT22;7289;50.706;4.992;2023-09-19T03:37:49;15.40;99.90
14409;DHT22;7289;50.706;4.992;2023-09-19T03:40:19;15.50;99.90
14409;DHT22;7289;50.706;4.992;2023-09-19T03:42:49;15.50;99.90
14409;DHT22;7289;50.706;4.992;2023-09-19T03:45:18;15.60;99.90
14409;DHT22;7289;50.706;4.992;2023-09-19T03:47:50;15.60;99.90
14409;DHT22;7289;50.706;4.992;2023-09-19T03:50:21;15.60;99.90
14409;DHT22;7289;50.706;4.992;2023-09-19T03:52:56;15.60;99.90
14409;DHT22;7289;50.706;4.992;2023-09-19T03:55:25;15.60;99.90
14409;DHT22;7289;50.706;4.992;2023-09-19T03:57:55;15.50;99.90
14409;DHT22;7289;50.706;4.992;2023-09-19T04:00:24;15.50;99.90
14409;DHT22;7289;50.706;4.992;2023-09-19T04:02:53;15.30;99.90
14409;DHT22;7289;50.706;4.992;2023-09-19T04:05:23;15.30;99.90
14409;DHT22;7289;50.706;4.992;2023-09-19T04:07:53;15.30;99.90
14409;DHT22;7289;50.706;4.992;2023-09-19T04:10:22;15.20;99.90
14409;DHT22;7289;50.706;4.992;2023-09-19T04:12:51;15.10;99.90
14409;DHT22;7289;50.706;4.992;2023-09-19T04:15:21;15.00;99.90
14409;DHT22;7289;50.706;4.992;2023-09-19T04:17:53;14.90;99.90
14409;DHT22;7289;50.706;4.992;2023-09-19T04:20:21;14.90;99.90
14409;DHT22;7289;50.706;4.992;2023-09-19T04:22:52;14.90;99.90
14409;DHT22;7289;50.706;4.992;2023-09-19T04:25:21;14.90;99.90
14409;DHT22;7289;50.706;4.992;2023-09-19T04:27:50;14.90;99.90
14409;DHT22;7289;50.706;4.992;2023-09-19T04:30:18;14.80;99.90
14409;DHT22;7289;50.706;4.992;2023-09-19T04:32:48;14.90;99.90
14409;DHT22;7289;50.706;4.992;2023-09-19T04:35:19;14.90;99.90
14409;DHT22;7289;50.706;4.992;2023-09-19T04:37:48;14.80;99.90
14409;DHT22;7289;50.706;4.992;2023-09-19T04:40:18;14.80;99.90
14409;DHT22;7289;50.706;4.992;2023-09-19T04:42:53;14.80;99.90
14409;DHT22;7289;50.706;4.992;2023-09-19T04:45:24;14.80;99.90
14409;DHT22;7289;50.706;4.992;2023-09-19T04:47:53;14.80;99.90
14409;DHT22;7289;50.706;4.992;2023-09-19T04:50:22;14.80;99.90
14409;DHT22;7289;50.706;4.992;2023-09-19T04:52:53;14.70;99.90
14409;DHT22;7289;50.706;4.992;2023-09-19T04:55:23;14.70;99.90
14409;DHT22;7289;50.706;4.992;2023-09-19T04:57:52;14.70;99.90
14409;DHT22;7289;50.706;4.992;2023-09-19T05:00:22;14.60;99.90
14409;DHT22;7289;50.706;4.992;2023-09-19T05:02:52;14.60;99.90
14409;DHT22;7289;50.706;4.992;2023-09-19T05:05:21;14.60;99.90
14409;DHT22;7289;50.706;4.992;2023-09-19T05:07:50;14.60;99.90
14409;DHT22;7289;50.706;4.992;2023-09-19T05:10:22;14.50;99.90
14409;DHT22;7289;50.706;4.992;2023-09-19T05:12:53;14.50;99.90
14409;DHT22;7289;50.706;4.992;2023-09-19T05:15:21;14.50;99.90
14409;DHT22;7289;50.706;4.992;2023-09-19T05:17:51;14.50;99.90
14409;DHT22;7289;50.706;4.992;2023-09-19T05:20:24;14.50;99.90
14409;DHT22;7289;50.706;4.992;2023-09-19T05:22:58;14.50;99.90
14409;DHT22;7289;50.706;4.992;2023-09-19T05:25:32;14.60;99.90
14409;DHT22;7289;50.706;4.992;2023-09-19T05:28:05;14.50;99.90
14409;DHT22;7289;50.706;4.992;2023-09-19T05:30:35;14.60;99.90
14409;DHT22;7289;50.706;4.992;2023-09-19T05:33:06;14.60;99.90
14409;DHT22;7289;50.706;4.992;2023-09-19T05:35:35;14.50;99.90
14409;DHT22;7289;50.706;4.992;2023-09-19T05:38:06;14.50;99.90
14409;DHT22;7289;50.706;4.992;2023-09-19T05:40:37;14.50;99.90
14409;DHT22;7289;50.706;4.992;2023-09-19T05:43:09;14.50;99.90
14409;DHT22;7289;50.706;4.992;2023-09-19T05:45:37;14.50;99.90
14409;DHT22;7289;50.706;4.992;2023-09-19T05:48:09;14.60;99.90
14409;DHT22;7289;50.706;4.992;2023-09-19T05:50:38;14.70;99.90
14409;DHT22;7289;50.706;4.992;2023-09-19T05:53:07;14.70;99.90
14409;DHT22;7289;50.706;4.992;2023-09-19T05:55:38;14.80;99.90
14409;DHT22;7289;50.706;4.992;2023-09-19T05:58:07;14.80;99.90
14409;DHT22;7289;50.706;4.992;2023-09-19T06:00:37;14.80;99.90
14409;DHT22;7289;50.706;4.992;2023-09-19T06:03:06;14.80;99.90
14409;DHT22;7289;50.706;4.992;2023-09-19T06:05:35;14.90;99.90
14409;DHT22;7289;50.706;4.992;2023-09-19T06:08:06;14.90;99.90
14409;DHT22;7289;50.706;4.992;2023-09-19T06:10:37;14.90;99.90
14409;DHT22;7289;50.706;4.992;2023-09-19T06:13:06;15.10;99.90
14409;DHT22;7289;50.706;4.992;2023-09-19T06:15:37;15.00;99.90
14409;DHT22;7289;50.706;4.992;2023-09-19T06:18:10;15.10;99.90
14409;DHT22;7289;50.706;4.992;2023-09-19T06:20:42;15.10;99.90
14409;DHT22;7289;50.706;4.992;2023-09-19T06:23:12;15.20;99.90
14409;DHT22;7289;50.706;4.992;2023-09-19T06:25:42;15.20;99.90
14409;DHT22;7289;50.706;4.992;2023-09-19T06:28:11;15.30;99.90
14409;DHT22;7289;50.706;4.992;2023-09-19T06:30:40;15.40;99.90
14409;DHT22;7289;50.706;4.992;2023-09-19T06:33:09;15.40;99.90
14409;DHT22;7289;50.706;4.992;2023-09-19T06:35:39;15.40;99.90
14409;DHT22;7289;50.706;4.992;2023-09-19T06:38:09;15.50;99.90
14409;DHT22;7289;50.706;4.992;2023-09-19T06:40:41;15.70;99.90
14409;DHT22;7289;50.706;4.992;2023-09-19T06:43:11;15.70;99.90
14409;DHT22;7289;50.706;4.992;2023-09-19T06:45:39;15.80;99.90
14409;DHT22;7289;50.706;4.992;2023-09-19T06:48:09;15.80;99.90
14409;DHT22;7289;50.706;4.992;2023-09-19T06:50:39;15.80;99.90
14409;DHT22;7289;50.706;4.992;2023-09-19T06:53:08;15.90;99.90
14409;DHT22;7289;50.706;4.992;2023-09-19T06:55:37;16.00;99.90
14409;DHT22;7289;50.706;4.992;2023-09-19T06:58:06;15.90;99.90
14409;DHT22;7289;50.706;4.992;2023-09-19T07:00:35;16.00;99.90
14409;DHT22;7289;50.706;4.992;2023-09-19T07:03:06;16.00;99.90
14409;DHT22;7289;50.706;4.992;2023-09-19T07:05:40;16.00;99.90
14409;DHT22;7289;50.706;4.992;2023-09-19T07:08:10;16.10;99.90
14409;DHT22;7289;50.706;4.992;2023-09-19T07:10:41;16.20;99.90
14409;DHT22;7289;50.706;4.992;2023-09-19T07:13:17;16.30;99.90
14409;DHT22;7289;50.706;4.992;2023-09-19T07:15:46;16.40;99.90
14409;DHT22;7289;50.706;4.992;2023-09-19T07:18:15;16.50;99.90
14409;DHT22;7289;50.706;4.992;2023-09-19T07:20:44;16.50;99.90
14409;DHT22;7289;50.706;4.992;2023-09-19T07:23:16;16.50;99.90
14409;DHT22;7289;50.706;4.992;2023-09-19T07:25:45;16.60;99.90
14409;DHT22;7289;50.706;4.992;2023-09-19T07:28:17;16.60;99.90
14409;DHT22;7289;50.706;4.992;2023-09-19T07:30:46;16.60;99.90
14409;DHT22;7289;50.706;4.992;2023-09-19T07:33:14;16.60;99.90
14409;DHT22;7289;50.706;4.992;2023-09-19T07:35:45;16.60;99.90
14409;DHT22;7289;50.706;4.992;2023-09-19T07:38:14;16.60;99.90
14409;DHT22;7289;50.706;4.992;2023-09-19T07:40:46;16.60;99.90
14409;DHT22;7289;50.706;4.992;2023-09-19T07:43:14;16.60;99.90
14409;DHT22;7289;50.706;4.992;2023-09-19T07:45:46;16.70;99.90
14409;DHT22;7289;50.706;4.992;2023-09-19T07:48:15;16.70;99.90
14409;DHT22;7289;50.706;4.992;2023-09-19T07:50:46;16.80;99.90
14409;DHT22;7289;50.706;4.992;2023-09-19T07:53:14;16.80;99.90
14409;DHT22;7289;50.706;4.992;2023-09-19T07:55:44;16.80;99.90
14409;DHT22;7289;50.706;4.992;2023-09-19T07:58:15;16.80;99.90
14409;DHT22;7289;50.706;4.992;2023-09-19T08:00:45;17.00;99.90
14409;DHT22;7289;50.706;4.992;2023-09-19T08:03:16;17.20;99.90
14409;DHT22;7289;50.706;4.992;2023-09-19T08:05:45;17.30;99.90
14409;DHT22;7289;50.706;4.992;2023-09-19T08:08:15;17.30;99.90
14409;DHT22;7289;50.706;4.992;2023-09-19T08:10:44;17.30;99.90
14409;DHT22;7289;50.706;4.992;2023-09-19T08:13:18;17.30;99.90
14409;DHT22;7289;50.706;4.992;2023-09-19T08:15:52;17.40;99.90
14409;DHT22;7289;50.706;4.992;2023-09-19T08:18:23;17.50;99.90
14409;DHT22;7289;50.706;4.992;2023-09-19T08:20:53;17.50;99.90
14409;DHT22;7289;50.706;4.992;2023-09-19T08:23:22;17.50;99.90
14409;DHT22;7289;50.706;4.992;2023-09-19T08:25:50;17.60;99.90
14409;DHT22;7289;50.706;4.992;2023-09-19T08:28:24;17.60;99.90
14409;DHT22;7289;50.706;4.992;2023-09-19T08:30:53;17.50;99.90
14409;DHT22;7289;50.706;4.992;2023-09-19T08:33:22;17.60;99.90
14409;DHT22;7289;50.706;4.992;2023-09-19T08:35:51;17.70;99.90
14409;DHT22;7289;50.706;4.992;2023-09-19T08:38:22;17.80;99.90
14409;DHT22;7289;50.706;4.992;2023-09-19T08:40:50;17.80;99.90
14409;DHT22;7289;50.706;4.992;2023-09-19T08:43:21;17.80;99.90
14409;DHT22;7289;50.706;4.992;2023-09-19T08:45:56;18.00;99.90
14409;DHT22;7289;50.706;4.992;2023-09-19T08:48:27;18.10;99.70
14409;DHT22;7289;50.706;4.992;2023-09-19T08:51:00;18.30;99.90
14409;DHT22;7289;50.706;4.992;2023-09-19T08:53:41;18.30;99.60
14409;DHT22;7289;50.706;4.992;2023-09-19T08:56:14;18.30;99.50
14409;DHT22;7289;50.706;4.992;2023-09-19T08:58:48;18.30;99.20
14409;DHT22;7289;50.706;4.992;2023-09-19T09:01:19;18.40;99.20
14409;DHT22;7289;50.706;4.992;2023-09-19T09:03:53;18.40;99.30
14409;DHT22;7289;50.706;4.992;2023-09-19T09:06:22;18.50;98.40
14409;DHT22;7289;50.706;4.992;2023-09-19T09:08:52;18.50;98.80
14409;DHT22;7289;50.706;4.992;2023-09-19T09:11:21;18.60;99.20
14409;DHT22;7289;50.706;4.992;2023-09-19T09:13:52;18.70;98.90
14409;DHT22;7289;50.706;4.992;2023-09-19T09:16:22;18.70;98.60
14409;DHT22;7289;50.706;4.992;2023-09-19T09:18:53;18.80;98.20
14409;DHT22;7289;50.706;4.992;2023-09-19T09:21:25;18.90;98.40
14409;DHT22;7289;50.706;4.992;2023-09-19T09:24:28;18.80;98.20
14409;DHT22;7289;50.706;4.992;2023-09-19T09:26:57;18.90;97.90
14409;DHT22;7289;50.706;4.992;2023-09-19T09:29:44;18.90;97.70
14409;DHT22;7289;50.706;4.992;2023-09-19T09:32:22;19.00;97.10
14409;DHT22;7289;50.706;4.992;2023-09-19T09:34:52;19.10;97.80
14409;DHT22;7289;50.706;4.992;2023-09-19T09:37:25;19.20;97.50
14409;DHT22;7289;50.706;4.992;2023-09-19T09:39:57;19.40;97.50
14409;DHT22;7289;50.706;4.992;2023-09-19T09:42:30;19.40;96.80
14409;DHT22;7289;50.706;4.992;2023-09-19T09:45:15;19.50;96.20
14409;DHT22;7289;50.706;4.992;2023-09-19T09:47:47;19.50;96.30
14409;DHT22;7289;50.706;4.992;2023-09-19T09:50:29;19.60;96.20
14409;DHT22;7289;50.706;4.992;2023-09-19T09:53:20;19.50;95.70
14409;DHT22;7289;50.706;4.992;2023-09-19T09:56:02;19.50;95.60
14409;DHT22;7289;50.706;4.992;2023-09-19T09:58:33;19.50;95.60
14409;DHT22;7289;50.706;4.992;2023-09-19T10:01:03;19.70;95.60
14409;DHT22;7289;50.706;4.992;2023-09-19T10:03:38;19.90;94.90
14409;DHT22;7289;50.706;4.992;2023-09-19T10:06:10;19.90;94.80
14409;DHT22;7289;50.706;4.992;2023-09-19T10:09:04;20.00;95.20
14409;DHT22;7289;50.706;4.992;2023-09-19T10:11:45;20.00;94.60
14409;DHT22;7289;50.706;4.992;2023-09-19T10:14:15;20.20;94.70
14409;DHT22;7289;50.706;4.992;2023-09-19T10:16:46;20.30;94.90
14409;DHT22;7289;50.706;4.992;2023-09-19T10:19:21;20.30;95.00
14409;DHT22;7289;50.706;4.992;2023-09-19T10:21:54;20.30;94.80
14409;DHT22;7289;50.706;4.992;2023-09-19T10:24:24;20.30;94.80
14409;DHT22;7289;50.706;4.992;2023-09-19T10:26:55;20.20;94.40
14409;DHT22;7289;50.706;4.992;2023-09-19T10:29:34;20.10;94.50
14409;DHT22;7289;50.706;4.992;2023-09-19T10:32:04;20.20;94.50
14409;DHT22;7289;50.706;4.992;2023-09-19T10:34:38;20.10;94.70
14409;DHT22;7289;50.706;4.992;2023-09-19T10:37:12;20.20;95.30
14409;DHT22;7289;50.706;4.992;2023-09-19T10:39:45;20.10;95.40
14409;DHT22;7289;50.706;4.992;2023-09-19T10:42:19;20.00;95.20
14409;DHT22;7289;50.706;4.992;2023-09-19T10:44:52;20.00;95.20
14409;DHT22;7289;50.706;4.992;2023-09-19T10:47:21;20.00;94.90
14409;DHT22;7289;50.706;4.992;2023-09-19T10:49:53;19.90;94.80
14409;DHT22;7289;50.706;4.992;2023-09-19T10:52:24;19.90;95.00
14409;DHT22;7289;50.706;4.992;2023-09-19T10:54:55;19.90;95.10
14409;DHT22;7289;50.706;4.992;2023-09-19T10:57:26;20.00;95.80
14409;DHT22;7289;50.706;4.992;2023-09-19T11:00:03;20.10;95.40
14409;DHT22;7289;50.706;4.992;2023-09-19T11:03:19;20.00;94.90
14409;DHT22;7289;50.706;4.992;2023-09-19T11:06:08;20.10;94.30
14409;DHT22;7289;50.706;4.992;2023-09-19T11:09:01;20.10;95.10
14409;DHT22;7289;50.706;4.992;2023-09-19T11:11:50;20.30;95.20
14409;DHT22;7289;50.706;4.992;2023-09-19T11:17:40;20.40;94.70
14409;DHT22;7289;50.706;4.992;2023-09-19T11:20:20;20.30;95.10
14409;DHT22;7289;50.706;4.992;2023-09-19T11:23:18;20.40;94.80
14409;DHT22;7289;50.706;4.992;2023-09-19T11:25:50;20.50;94.80
14409;DHT22;7289;50.706;4.992;2023-09-19T11:28:30;20.30;95.00
14409;DHT22;7289;50.706;4.992;2023-09-19T11:30:59;20.20;94.90
14409;DHT22;7289;50.706;4.992;2023-09-19T11:33:28;20.30;95.20
14409;DHT22;7289;50.706;4.992;2023-09-19T11:36:03;20.30;94.70
14409;DHT22;7289;50.706;4.992;2023-09-19T11:39:01;20.30;94.60
14409;DHT22;7289;50.706;4.992;2023-09-19T11:41:39;20.30;94.70
14409;DHT22;7289;50.706;4.992;2023-09-19T11:44:33;20.30;95.00
14409;DHT22;7289;50.706;4.992;2023-09-19T11:47:05;20.40;95.20
14409;DHT22;7289;50.706;4.992;2023-09-19T11:49:34;20.40;94.50
14409;DHT22;7289;50.706;4.992;2023-09-19T11:52:04;20.50;94.30
14409;DHT22;7289;50.706;4.992;2023-09-19T11:54:40;20.70;94.40
14409;DHT22;7289;50.706;4.992;2023-09-19T11:57:11;20.70;93.70
14409;DHT22;7289;50.706;4.992;2023-09-19T11:59:51;20.80;93.90
14409;DHT22;7289;50.706;4.992;2023-09-19T12:02:37;20.90;93.40
14409;DHT22;7289;50.706;4.992;2023-09-19T12:05:08;21.10;93.60
14409;DHT22;7289;50.706;4.992;2023-09-19T12:07:42;21.30;93.00
14409;DHT22;7289;50.706;4.992;2023-09-19T12:10:16;21.60;93.20
14409;DHT22;7289;50.706;4.992;2023-09-19T12:12:48;21.80;92.90
14409;DHT22;7289;50.706;4.992;2023-09-19T12:15:23;21.70;92.30
14409;DHT22;7289;50.706;4.992;2023-09-19T12:18:03;21.70;91.90
14409;DHT22;7289;50.706;4.992;2023-09-19T12:20:44;21.70;92.50
14409;DHT22;7289;50.706;4.992;2023-09-19T12:23:19;21.70;92.50
14409;DHT22;7289;50.706;4.992;2023-09-19T12:25:49;21.80;92.80
14409;DHT22;7289;50.706;4.992;2023-09-19T12:28:21;21.90;92.20
14409;DHT22;7289;50.706;4.992;2023-09-19T12:30:50;21.90;92.30
14409;DHT22;7289;50.706;4.992;2023-09-19T12:33:20;22.00;92.50
14409;DHT22;7289;50.706;4.992;2023-09-19T12:35:53;22.00;92.50
14409;DHT22;7289;50.706;4.992;2023-09-19T12:38:25;22.10;92.00
14409;DHT22;7289;50.706;4.992;2023-09-19T12:40:57;22.00;92.40
14409;DHT22;7289;50.706;4.992;2023-09-19T12:43:28;22.10;92.60
14409;DHT22;7289;50.706;4.992;2023-09-19T12:46:00;22.20;92.40
14409;DHT22;7289;50.706;4.992;2023-09-19T12:48:29;22.30;92.60
14409;DHT22;7289;50.706;4.992;2023-09-19T12:51:03;22.20;91.80
14409;DHT22;7289;50.706;4.992;2023-09-19T12:53:34;22.10;92.30
14409;DHT22;7289;50.706;4.992;2023-09-19T12:56:10;22.20;91.90
14409;DHT22;7289;50.706;4.992;2023-09-19T12:58:52;22.20;92.00
14409;DHT22;7289;50.706;4.992;2023-09-19T13:01:23;22.20;92.30
14409;DHT22;7289;50.706;4.992;2023-09-19T13:04:15;22.10;92.50
14409;DHT22;7289;50.706;4.992;2023-09-19T13:06:46;22.20;92.90
14409;DHT22;7289;50.706;4.992;2023-09-19T13:09:16;22.00;92.90
14409;DHT22;7289;50.706;4.992;2023-09-19T13:11:47;21.90;92.70
14409;DHT22;7289;50.706;4.992;2023-09-19T13:14:20;21.90;93.00
14409;DHT22;7289;50.706;4.992;2023-09-19T13:16:56;21.70;92.40
14409;DHT22;7289;50.706;4.992;2023-09-19T13:19:39;21.50;92.80
14409;DHT22;7289;50.706;4.992;2023-09-19T13:22:39;21.50;92.80
14409;DHT22;7289;50.706;4.992;2023-09-19T13:25:10;21.50;92.80
14409;DHT22;7289;50.706;4.992;2023-09-19T13:27:44;21.60;93.00
14409;DHT22;7289;50.706;4.992;2023-09-19T13:30:13;21.60;93.20
14409;DHT22;7289;50.706;4.992;2023-09-19T13:32:42;21.60;92.90
14409;DHT22;7289;50.706;4.992;2023-09-19T13:35:11;21.60;93.00
14409;DHT22;7289;50.706;4.992;2023-09-19T13:37:40;21.50;93.40
14409;DHT22;7289;50.706;4.992;2023-09-19T13:40:13;21.30;93.40
14409;DHT22;7289;50.706;4.992;2023-09-19T13:42:43;21.20;93.60
14409;DHT22;7289;50.706;4.992;2023-09-19T13:45:12;21.40;93.60
14409;DHT22;7289;50.706;4.992;2023-09-19T13:47:44;21.70;93.00
14409;DHT22;7289;50.706;4.992;2023-09-19T13:50:13;22.10;92.80
14409;DHT22;7289;50.706;4.992;2023-09-19T13:52:41;22.00;93.00
14409;DHT22;7289;50.706;4.992;2023-09-19T13:55:10;22.20;93.10
14409;DHT22;7289;50.706;4.992;2023-09-19T13:57:48;22.10;92.50
14409;DHT22;7289;50.706;4.992;2023-09-19T14:00:19;22.10;92.00
14409;DHT22;7289;50.706;4.992;2023-09-19T14:02:49;21.90;92.50
14409;DHT22;7289;50.706;4.992;2023-09-19T14:05:19;21.90;92.50
14409;DHT22;7289;50.706;4.992;2023-09-19T14:07:49;21.80;92.90
14409;DHT22;7289;50.706;4.992;2023-09-19T14:10:17;21.70;92.60
14409;DHT22;7289;50.706;4.992;2023-09-19T14:12:47;21.50;93.20
14409;DHT22;7289;50.706;4.992;2023-09-19T14:15:16;21.20;93.30
14409;DHT22;7289;50.706;4.992;2023-09-19T14:17:44;21.10;93.50
14409;DHT22;7289;50.706;4.992;2023-09-19T14:20:13;21.00;93.90
14409;DHT22;7289;50.706;4.992;2023-09-19T14:22:43;21.00;93.90
14409;DHT22;7289;50.706;4.992;2023-09-19T14:25:11;21.10;93.90
14409;DHT22;7289;50.706;4.992;2023-09-19T14:27:40;21.20;93.90
14409;DHT22;7289;50.706;4.992;2023-09-19T14:30:11;21.20;94.00
14409;DHT22;7289;50.706;4.992;2023-09-19T14:32:39;21.30;93.60
14409;DHT22;7289;50.706;4.992;2023-09-19T14:35:08;21.50;93.90
14409;DHT22;7289;50.706;4.992;2023-09-19T14:37:37;21.70;93.60
14409;DHT22;7289;50.706;4.992;2023-09-19T14:40:08;22.00;93.00
14409;DHT22;7289;50.706;4.992;2023-09-19T14:42:40;22.00;93.00
14409;DHT22;7289;50.706;4.992;2023-09-19T14:45:12;22.00;92.60
14409;DHT22;7289;50.706;4.992;2023-09-19T14:47:45;21.80;92.70
14409;DHT22;7289;50.706;4.992;2023-09-19T14:50:14;21.70;92.80
14409;DHT22;7289;50.706;4.992;2023-09-19T14:52:43;21.70;93.00
14409;DHT22;7289;50.706;4.992;2023-09-19T14:55:11;21.70;92.90
14409;DHT22;7289;50.706;4.992;2023-09-19T14:57:41;21.80;93.40
14409;DHT22;7289;50.706;4.992;2023-09-19T15:00:14;22.00;93.30
14409;DHT22;7289;50.706;4.992;2023-09-19T15:02:43;22.00;92.80
14409;DHT22;7289;50.706;4.992;2023-09-19T15:05:16;22.10;92.90
14409;DHT22;7289;50.706;4.992;2023-09-19T15:07:46;22.10;92.60
14409;DHT22;7289;50.706;4.992;2023-09-19T15:10:15;22.10;92.90
14409;DHT22;7289;50.706;4.992;2023-09-19T15:12:45;22.00;93.00
14409;DHT22;7289;50.706;4.992;2023-09-19T15:15:15;21.90;93.00
14409;DHT22;7289;50.706;4.992;2023-09-19T15:17:44;22.10;93.30
14409;DHT22;7289;50.706;4.992;2023-09-19T15:20:12;22.10;93.00
14409;DHT22;7289;50.706;4.992;2023-09-19T15:22:41;21.80;93.40
14409;DHT22;7289;50.706;4.992;2023-09-19T15:25:10;21.60;93.50
14409;DHT22;7289;50.706;4.992;2023-09-19T15:27:39;21.50;93.90
14409;DHT22;7289;50.706;4.992;2023-09-19T15:30:09;21.30;93.60
14409;DHT22;7289;50.706;4.992;2023-09-19T15:32:39;21.20;93.40
14409;DHT22;7289;50.706;4.992;2023-09-19T15:35:08;21.10;93.70
14409;DHT22;7289;50.706;4.992;2023-09-19T15:37:38;21.10;94.00
14409;DHT22;7289;50.706;4.992;2023-09-19T15:40:08;20.90;94.00
14409;DHT22;7289;50.706;4.992;2023-09-19T15:42:39;20.90;94.60
14409;DHT22;7289;50.706;4.992;2023-09-19T15:45:08;20.90;94.30
14409;DHT22;7289;50.706;4.992;2023-09-19T15:47:39;20.90;94.30
14409;DHT22;7289;50.706;4.992;2023-09-19T15:50:10;20.80;94.50
14409;DHT22;7289;50.706;4.992;2023-09-19T15:52:41;20.80;94.40
14409;DHT22;7289;50.706;4.992;2023-09-19T15:55:09;20.80;94.10
14409;DHT22;7289;50.706;4.992;2023-09-19T15:57:39;20.70;94.40
14409;DHT22;7289;50.706;4.992;2023-09-19T16:00:08;20.70;94.70
14409;DHT22;7289;50.706;4.992;2023-09-19T16:02:42;20.80;94.70
14409;DHT22;7289;50.706;4.992;2023-09-19T16:05:11;20.70;94.90
14409;DHT22;7289;50.706;4.992;2023-09-19T16:07:40;20.60;95.00
14409;DHT22;7289;50.706;4.992;2023-09-19T16:10:09;20.50;95.10
14409;DHT22;7289;50.706;4.992;2023-09-19T16:12:37;20.40;95.00
14409;DHT22;7289;50.706;4.992;2023-09-19T16:15:06;20.30;95.30
14409;DHT22;7289;50.706;4.992;2023-09-19T16:17:38;20.30;95.30
14409;DHT22;7289;50.706;4.992;2023-09-19T16:20:08;20.30;95.40